• Join FlightAware (Why Join?)
  • Login
  • US Flag 
05:11AM EDT


 

Airport Tracker/Info


-or-


 

Live Flight TrackerFlight Track Log ✈ N77VE ✈ 30-Sep-2013 ✈ KGAI - KHGR

Flight Track Log - Related Links

Times and Time Zones

All times are in EDT time to prevent confusion due to time zone crossing. See the N77VE flight status page for this flight to view local times or setup timezone preferences in your user account.

Time Position Orientation Groundspeed Altitude Reporting Facility
EDT Latitude Longitude Course Direction KTS MPH feet Rate Location/Type
04:43PM 39.2000 -77.1667 38° Northeast 111 128 1,700  Level Potomac TRACON
04:44PM 39.2167 -77.1500 38° Northeast 105 121 2,300 480 Climbing Potomac TRACON
04:45PM 39.2500 -77.1667 339° North 116 133 2,700 540 Climbing Potomac TRACON
04:46PM 39.2667 -77.2000 303° West 114 131 3,400 540 Climbing Potomac TRACON
04:48PM 39.3106 -77.2467 321° Northwest 113 130 4,200 240 Climbing Washington Center
04:49PM 39.3372 -77.2794 316° Northwest 123 142 4,100 -120 Descending Washington Center
04:50PM 39.3658 -77.3122 318° Northwest 128 147 4,000  Descending Washington Center
04:51PM 39.3925 -77.3453 316° Northwest 128 147 4,200  Climbing Washington Center
04:52PM 39.4211 -77.3781 318° Northwest 128 147 4,100 -120 Descending Washington Center
04:53PM 39.4500 -77.4111 319° Northwest 133 153 4,000 -60 Descending Washington Center
04:54PM 39.4764 -77.4439 316° Northwest 133 153 4,000  Level Washington Center
04:55PM 39.5072 -77.4744 323° Northwest 133 153 4,100  Climbing Washington Center
04:56PM 39.5317 -77.5100 312° West 133 153 4,100 -60 Level Washington Center
04:57PM 39.5625 -77.5431 320° Northwest 133 153 4,000 -180 Descending Washington Center
04:58PM 39.5889 -77.5761 316° Northwest 133 153 3,800 -420 Descending Washington Center
04:59PM 39.6156 -77.6119 314° West 133 153 3,200 -480 Descending Washington Center
05:00PM 39.6419 -77.6422 319° Northwest 133 153 2,900 -240 Descending Washington Center
05:01PM 39.6686 -77.6672 324° Northwest 133 153 2,800 -420 Descending Washington Center
05:02PM 39.6975 -77.6842 336° Northwest 121 139 2,100 -960 Descending Washington Center
05:03PM 39.7097 -77.7089 303° West 104 120 900 -1,200 Descending Washington Center